Elliott, Illinois
Current Conditions -  °F | °C
As of 4:15 AM on Thursday 29 Jan 2015 (Local Time) from KTIP Reporting Station
Clear Clear  
Wind Chill: 30°   Ceiling: Unl
Heat Index: 38°   Visibility: 10mi
Dew Point: 33°   Wind: 13mph
Humidity: 83%   Direction: 180°S
Pressure: 29.7"   Gusts: NA
Location:  40.46°N, 88.27°W
Report Text: KTIP 291015Z AUTO 18011KT 10SM CLR 03/01 A2970 RMK AO2 T00320005
Loading
Personal Weather Stations






























Interactive Weather Map New forecast layout! Learn more

10-Day Weather Forecast

Advertisements
Track Severe Weather on mobile